Time;durP1;ratioP1;P1;durP2;ratioP2;P2;SDS_P1;SDS_P2;PMS_P1;PMS_P2;Temp;Humidity;BMP_temperature;BMP_pressure;BME280_temperature;BME280_humidity;BME280_pressure;Samples;Min_cycle;Max_cycle;Signal;HPM_P1;HPM_P2
2021/08/16 00:00:28;;;;;;;10.27;1.10;;;17.10;99.90;;;;;;5098108;28;20063;-78
2021/08/16 00:02:53;;;;;;;19.73;1.70;;;17.10;99.90;;;;;;5116505;28;20038;-77
2021/08/16 00:05:19;;;;;;;14.02;0.90;;;17.10;99.90;;;;;;5097817;28;20016;-76
2021/08/16 00:07:45;;;;;;;12.23;0.70;;;17.10;99.90;;;;;;5097438;28;20480;-77
2021/08/16 00:10:15;;;;;;;13.55;0.77;;;17.00;99.90;;;;;;5115849;28;20388;-77
2021/08/16 00:12:41;;;;;;;12.23;1.80;;;17.10;99.90;;;;;;5097458;28;20028;-77
2021/08/16 00:15:07;;;;;;;17.98;1.48;;;17.00;99.90;;;;;;5116054;28;20028;-78
2021/08/16 00:17:33;;;;;;;12.25;1.15;;;17.00;99.90;;;;;;5115899;28;20019;-78
2021/08/16 00:19:59;;;;;;;12.43;2.50;;;17.00;99.90;;;;;;5115884;28;20054;-77
2021/08/16 00:22:25;;;;;;;16.90;0.70;;;17.10;99.90;;;;;;5115934;28;20016;-78
2021/08/16 00:24:50;;;;;;;18.10;1.10;;;17.00;99.90;;;;;;5097554;28;20556;-78
2021/08/16 00:27:19;;;;;;;17.58;1.77;;;17.00;99.90;;;;;;5097574;28;20119;-76
2021/08/16 00:29:44;;;;;;;14.07;1.02;;;17.00;99.90;;;;;;5115516;28;20035;-76
2021/08/16 00:32:10;;;;;;;12.35;1.75;;;17.10;99.90;;;;;;5097203;28;20392;-77
2021/08/16 00:34:35;;;;;;;14.20;0.77;;;17.10;99.90;;;;;;5115850;28;20053;-78
2021/08/16 00:37:01;;;;;;;12.45;1.40;;;17.10;99.90;;;;;;5115697;28;20038;-78
2021/08/16 00:39:27;;;;;;;12.25;2.10;;;17.20;99.90;;;;;;5097570;28;20039;-77
2021/08/16 00:41:53;;;;;;;10.13;1.08;;;17.20;99.90;;;;;;5115808;28;20469;-80
2021/08/16 00:44:19;;;;;;;13.50;0.95;;;17.20;99.90;;;;;;5097346;28;20385;-77
2021/08/16 00:46:45;;;;;;;12.38;0.52;;;17.20;99.90;;;;;;5115797;28;20020;-78
2021/08/16 00:49:11;;;;;;;10.73;1.63;;;17.30;99.90;;;;;;5115684;28;20028;-78
2021/08/16 00:51:37;;;;;;;13.48;2.20;;;17.30;99.90;;;;;;5115990;28;20031;-78
2021/08/16 00:54:05;;;;;;;12.70;1.17;;;17.30;99.90;;;;;;5115741;28;20019;-78
2021/08/16 00:56:31;;;;;;;17.40;1.42;;;17.40;99.90;;;;;;5115144;28;20507;-77
2021/08/16 00:58:58;;;;;;;15.43;1.42;;;17.30;99.90;;;;;;5096732;28;20019;-77
2021/08/16 01:01:26;;;;;;;14.90;0.88;;;17.30;99.90;;;;;;5097421;28;20020;-77
2021/08/16 01:03:52;;;;;;;12.30;1.40;;;17.30;99.90;;;;;;5115272;28;20545;-77
2021/08/16 01:06:18;;;;;;;11.15;0.77;;;17.40;99.90;;;;;;5114878;28;20053;-77
2021/08/16 01:08:46;;;;;;;10.80;0.85;;;17.40;99.90;;;;;;5115087;28;20055;-76
2021/08/16 01:11:12;;;;;;;7.63;0.65;;;17.40;99.90;;;;;;5096437;28;20469;-76
2021/08/16 01:13:38;;;;;;;11.20;1.55;;;17.40;99.90;;;;;;5096385;28;20030;-77
2021/08/16 01:16:05;;;;;;;6.63;0.22;;;17.50;99.90;;;;;;5115089;28;20023;-77
2021/08/16 01:18:32;;;;;;;12.45;0.45;;;17.50;99.90;;;;;;5114731;28;20023;-77
2021/08/16 01:21:00;;;;;;;5.95;0.55;;;17.60;99.90;;;;;;5125581;22;20527;-75
2021/08/16 01:23:26;;;;;;;12.03;0.40;;;17.60;99.90;;;;;;5114881;28;20327;-77
2021/08/16 01:25:53;;;;;;;11.52;0.35;;;17.50;99.90;;;;;;5114416;28;20023;-75
2021/08/16 01:28:20;;;;;;;10.23;1.38;;;17.60;99.90;;;;;;5114336;28;20024;-76
2021/08/16 01:30:49;;;;;;;8.80;0.73;;;17.50;99.90;;;;;;5114361;28;20085;-75
2021/08/16 01:33:14;;;;;;;6.18;0.30;;;17.60;99.90;;;;;;5114499;28;20047;-79
2021/08/16 01:35:40;;;;;;;5.18;0.20;;;17.60;99.90;;;;;;5114679;28;20024;-77
2021/08/16 01:38:05;;;;;;;9.75;1.25;;;17.60;99.90;;;;;;5096153;28;20015;-79
2021/08/16 01:40:31;;;;;;;8.30;1.05;;;17.60;99.90;;;;;;5096441;28;20016;-78
2021/08/16 01:42:57;;;;;;;3.10;0.30;;;17.60;99.90;;;;;;5114602;28;20019;-75
2021/08/16 01:45:23;;;;;;;9.10;0.70;;;17.70;99.90;;;;;;5114182;28;20023;-76
2021/08/16 01:47:49;;;;;;;6.43;0.77;;;17.70;99.90;;;;;;5114789;28;20068;-77
2021/08/16 01:50:15;;;;;;;7.47;0.82;;;17.60;99.90;;;;;;5114343;28;20544;-77
2021/08/16 01:52:41;;;;;;;10.68;1.38;;;17.60;99.90;;;;;;5114268;28;20016;-77
2021/08/16 01:55:09;;;;;;;5.00;0.30;;;17.60;99.90;;;;;;5114759;28;20056;-77
2021/08/16 01:57:34;;;;;;;6.63;1.85;;;17.60;99.90;;;;;;5114803;28;20477;-77
2021/08/16 02:00:00;;;;;;;11.65;0.57;;;17.70;99.90;;;;;;5095882;28;20015;-77
2021/08/16 02:02:26;;;;;;;6.03;0.60;;;17.70;99.90;;;;;;5095928;28;20023;-77
2021/08/16 02:04:52;;;;;;;7.97;0.52;;;17.70;99.90;;;;;;5096183;28;20530;-80
2021/08/16 02:07:18;;;;;;;6.88;0.45;;;17.70;99.90;;;;;;5114694;28;20050;-77
2021/08/16 02:09:43;;;;;;;5.72;0.15;;;17.70;99.90;;;;;;5113844;28;20030;-75
2021/08/16 02:12:09;;;;;;;5.85;0.40;;;17.70;99.90;;;;;;5114218;28;20103;-78
2021/08/16 02:14:34;;;;;;;9.52;0.10;;;17.70;99.90;;;;;;5113871;28;20039;-75
2021/08/16 02:17:00;;;;;;;9.18;0.93;;;17.60;99.90;;;;;;5095472;28;20028;-75
2021/08/16 02:19:25;;;;;;;6.43;0.60;;;17.70;99.90;;;;;;5114122;28;20047;-75
2021/08/16 02:21:51;;;;;;;8.60;0.38;;;17.70;99.90;;;;;;5113763;28;20120;-77
2021/08/16 02:24:17;;;;;;;5.75;0.20;;;17.80;99.90;;;;;;5114608;28;20092;-77
2021/08/16 02:26:43;;;;;;;10.18;0.82;;;17.80;99.90;;;;;;5114315;28;20015;-78
2021/08/16 02:29:09;;;;;;;10.77;1.17;;;17.80;99.90;;;;;;5114505;28;20389;-78
2021/08/16 02:31:35;;;;;;;2.50;0.10;;;17.70;99.90;;;;;;5117040;28;20095;-78
2021/08/16 02:34:01;;;;;;;5.82;0.93;;;17.70;99.90;;;;;;5100182;28;20421;-78
2021/08/16 02:36:26;;;;;;;5.63;0.50;;;17.70;99.90;;;;;;5100348;28;20477;-80
2021/08/16 02:38:52;;;;;;;11.50;0.43;;;17.70;99.90;;;;;;5118702;28;20027;-77
2021/08/16 02:41:18;;;;;;;6.55;0.22;;;17.70;99.90;;;;;;5117677;28;20023;-76
2021/08/16 02:43:43;;;;;;;5.18;0.10;;;17.60;99.90;;;;;;5099290;28;20076;-75
2021/08/16 02:46:09;;;;;;;8.43;0.10;;;17.60;99.90;;;;;;5099434;28;20016;-76
2021/08/16 02:48:35;;;;;;;3.70;0.43;;;17.60;99.90;;;;;;5118265;28;20102;-80
2021/08/16 02:51:00;;;;;;;12.35;0.52;;;17.60;99.90;;;;;;5117945;28;20525;-76
2021/08/16 02:53:26;;;;;;;6.15;0.10;;;17.60;99.90;;;;;;5099215;28;20408;-76
2021/08/16 02:55:51;;;;;;;2.20;0.05;;;17.60;99.90;;;;;;5117539;28;20024;-75
2021/08/16 02:58:17;;;;;;;7.22;0.38;;;18.20;99.90;;;;;;5118107;28;20035;-77
2021/08/16 03:00:42;;;;;;;11.35;0.70;;;17.60;99.90;;;;;;5099427;28;20020;-77
2021/08/16 03:03:09;;;;;;;3.03;0.20;;;17.60;99.90;;;;;;5117742;28;20030;-78
2021/08/16 03:05:34;;;;;;;9.80;0.85;;;17.60;99.90;;;;;;5117974;28;20068;-78
2021/08/16 03:08:00;;;;;;;5.50;0.22;;;17.70;99.90;;;;;;5100121;28;20473;-80
2021/08/16 03:10:26;;;;;;;5.85;0.20;;;17.70;99.90;;;;;;5117750;28;20046;-80
2021/08/16 03:12:51;;;;;;;4.97;0.57;;;17.70;99.90;;;;;;5099025;28;20373;-79
2021/08/16 03:15:17;;;;;;;3.20;0.03;;;20.40;99.90;;;;;;5117659;28;20077;-77
2021/08/16 03:17:42;;;;;;;2.65;0.38;;;17.70;99.90;;;;;;5117255;28;20096;-77
2021/08/16 03:20:09;;;;;;;9.73;0.73;;;17.80;99.90;;;;;;5117066;28;20103;-77
2021/08/16 03:22:35;;;;;;;8.02;1.00;;;17.80;99.90;;;;;;5098729;28;20358;-75
2021/08/16 03:25:00;;;;;;;6.25;0.20;;;17.80;99.90;;;;;;5116717;28;20095;-75
2021/08/16 03:27:26;;;;;;;7.25;0.17;;;17.80;99.90;;;;;;5116658;28;20015;-75
2021/08/16 03:29:52;;;;;;;6.53;0.17;;;17.80;99.90;;;;;;5098490;28;20027;-76
2021/08/16 03:32:17;;;;;;;5.75;0.20;;;17.80;99.90;;;;;;5117399;28;20024;-79
2021/08/16 03:34:43;;;;;;;5.93;0.30;;;17.70;99.90;;;;;;5117105;28;20058;-78
2021/08/16 03:37:08;;;;;;;6.13;0.20;;;17.70;99.90;;;;;;5098877;28;20020;-76
2021/08/16 03:39:34;;;;;;;5.55;0.77;;;17.70;99.90;;;;;;5116627;28;20465;-75
2021/08/16 03:42:00;;;;;;;6.43;0.75;;;17.60;99.90;;;;;;5116661;28;20030;-76
2021/08/16 03:44:25;;;;;;;9.95;0.88;;;17.70;99.90;;;;;;5115895;28;20027;-77
2021/08/16 03:46:51;;;;;;;3.60;0.10;;;17.60;99.90;;;;;;5116455;28;20492;-76
2021/08/16 03:49:17;;;;;;;5.65;0.30;;;17.60;99.90;;;;;;5116407;28;20051;-76
2021/08/16 03:51:43;;;;;;;5.85;0.15;;;17.60;99.90;;;;;;5116588;28;20389;-77
2021/08/16 03:54:08;;;;;;;7.85;0.30;;;17.60;99.90;;;;;;5116741;28;20015;-77
2021/08/16 03:56:34;;;;;;;7.40;0.47;;;17.50;99.90;;;;;;5098243;28;20023;-76
2021/08/16 03:59:00;;;;;;;4.97;0.25;;;17.60;99.90;;;;;;5116084;28;20110;-77
2021/08/16 04:01:26;;;;;;;10.40;0.00;;;17.60;99.90;;;;;;5116552;28;20058;-77
2021/08/16 04:03:51;;;;;;;3.83;0.25;;;17.60;99.90;;;;;;5116560;28;20442;-77
2021/08/16 04:06:18;;;;;;;4.10;0.75;;;17.60;99.90;;;;;;5117313;28;20026;-77
2021/08/16 04:08:43;;;;;;;3.53;0.20;;;17.60;99.90;;;;;;5115191;28;20028;-75
2021/08/16 04:11:11;;;;;;;6.65;0.20;;;17.60;99.90;;;;;;5097794;28;20027;-77
2021/08/16 04:13:36;;;;;;;6.15;0.68;;;17.50;99.90;;;;;;5097837;28;20062;-76
2021/08/16 04:16:02;;;;;;;7.15;0.77;;;17.50;99.90;;;;;;5109538;22;20066;-75
2021/08/16 04:18:28;;;;;;;5.60;0.20;;;17.50;99.90;;;;;;5115621;28;20028;-75
2021/08/16 04:20:54;;;;;;;11.15;0.35;;;17.50;99.90;;;;;;5115822;28;20068;-75
2021/08/16 04:23:20;;;;;;;5.57;0.55;;;17.50;99.90;;;;;;5097601;28;20031;-79
2021/08/16 04:25:45;;;;;;;6.53;0.43;;;17.60;99.90;;;;;;5116368;28;20019;-79
2021/08/16 04:28:11;;;;;;;6.15;0.95;;;17.60;99.90;;;;;;5115616;28;20030;-75
2021/08/16 04:30:36;;;;;;;4.78;0.28;;;17.60;99.90;;;;;;5116087;28;20354;-75
2021/08/16 04:33:02;;;;;;;7.45;0.30;;;17.60;99.90;;;;;;5115579;28;20024;-75
2021/08/16 04:35:27;;;;;;;7.68;0.52;;;17.60;99.90;;;;;;5115306;28;20023;-75
2021/08/16 04:37:53;;;;;;;7.13;0.30;;;17.50;99.90;;;;;;5115649;28;20020;-75
2021/08/16 04:40:19;;;;;;;10.13;0.50;;;17.50;99.90;;;;;;5097001;28;20080;-75
2021/08/16 04:42:45;;;;;;;9.00;0.10;;;17.60;99.90;;;;;;5115408;28;20020;-79
2021/08/16 04:45:11;;;;;;;4.70;0.70;;;17.50;99.90;;;;;;5115715;28;20431;-79
2021/08/16 04:47:37;;;;;;;4.10;0.82;;;17.50;99.90;;;;;;5097481;28;20396;-78
2021/08/16 04:50:06;;;;;;;2.45;0.10;;;17.50;99.90;;;;;;5097042;28;20110;-77
2021/08/16 04:52:32;;;;;;;3.97;0.08;;;17.50;99.90;;;;;;5096927;28;20023;-75
2021/08/16 04:54:57;;;;;;;3.80;0.20;;;17.50;99.90;;;;;;5114973;28;20016;-75
2021/08/16 04:57:34;;;;;;;5.25;0.28;;;17.50;99.90;;;;;;5096830;28;20016;-78
2021/08/16 04:59:59;;;;;;;6.63;0.52;;;17.50;99.90;;;;;;5097146;28;20076;-78
2021/08/16 05:02:25;;;;;;;4.35;0.35;;;17.50;99.90;;;;;;5096931;28;20107;-78
2021/08/16 05:04:57;;;;;;;7.88;0.20;;;17.50;99.90;;;;;;5096776;28;20020;-78
2021/08/16 05:07:23;;;;;;;8.30;0.80;;;17.50;99.90;;;;;;5097260;28;20023;-78
2021/08/16 05:09:51;;;;;;;6.57;0.40;;;17.40;99.90;;;;;;5115399;28;20034;-78
2021/08/16 05:12:16;;;;;;;6.00;0.52;;;17.30;99.90;;;;;;5115123;28;20037;-77
2021/08/16 05:14:42;;;;;;;9.82;0.93;;;17.30;99.90;;;;;;5115367;28;20490;-77
2021/08/16 05:17:08;;;;;;;7.70;1.02;;;17.20;99.90;;;;;;5114928;28;20031;-77
2021/08/16 05:19:37;;;;;;;4.03;0.25;;;17.20;99.90;;;;;;5096668;28;20077;-77
2021/08/16 05:22:09;;;;;;;5.15;0.50;;;17.20;99.90;;;;;;5096420;28;20022;-76
2021/08/16 05:24:35;;;;;;;4.97;0.30;;;17.20;99.90;;;;;;5114558;28;20019;-76
2021/08/16 05:27:02;;;;;;;4.47;0.32;;;17.10;99.90;;;;;;5114550;28;20477;-77
2021/08/16 05:29:28;;;;;;;5.47;0.40;;;17.10;99.90;;;;;;5114380;28;20524;-77
2021/08/16 05:31:54;;;;;;;7.07;0.50;;;17.20;99.90;;;;;;5113044;28;20022;-76
2021/08/16 05:34:19;;;;;;;3.83;0.57;;;17.10;99.90;;;;;;5096449;28;20032;-78
2021/08/16 05:36:45;;;;;;;5.00;0.20;;;17.00;99.90;;;;;;5096610;28;20028;-78
2021/08/16 05:39:10;;;;;;;4.38;0.35;;;17.00;99.90;;;;;;5096577;28;20027;-78
2021/08/16 05:41:36;;;;;;;2.15;0.20;;;17.00;99.90;;;;;;5096580;28;20107;-78
2021/08/16 05:44:01;;;;;;;5.05;0.08;;;17.00;99.90;;;;;;5096682;28;20008;-78
2021/08/16 05:46:27;;;;;;;4.28;0.10;;;17.00;99.90;;;;;;5096016;28;20024;-77
2021/08/16 05:48:52;;;;;;;3.10;0.28;;;17.00;99.90;;;;;;5114334;28;20030;-78
2021/08/16 05:51:18;;;;;;;3.80;0.00;;;17.00;99.90;;;;;;5115058;28;20028;-78
2021/08/16 05:53:44;;;;;;;1.75;0.00;;;17.00;99.90;;;;;;5114740;28;20027;-78
2021/08/16 05:56:09;;;;;;;3.72;0.22;;;17.00;99.90;;;;;;5115000;28;20023;-78
2021/08/16 05:58:35;;;;;;;4.10;0.08;;;17.00;99.90;;;;;;5096548;28;20016;-79
2021/08/16 06:01:00;;;;;;;4.13;0.82;;;17.00;99.90;;;;;;5097458;28;20027;-79
2021/08/16 06:03:26;;;;;;;0.30;0.00;;;17.00;99.90;;;;;;5114716;28;20015;-79
2021/08/16 06:05:52;;;;;;;0.65;0.00;;;17.10;99.90;;;;;;5096725;28;20031;-79
2021/08/16 06:08:17;;;;;;;5.05;0.57;;;17.00;99.90;;;;;;5096261;28;20020;-76
2021/08/16 06:10:43;;;;;;;0.73;0.00;;;17.00;99.90;;;;;;5113874;28;20072;-77
2021/08/16 06:13:08;;;;;;;3.60;0.03;;;17.00;99.90;;;;;;5095972;28;20069;-78
2021/08/16 06:15:34;;;;;;;1.65;0.65;;;16.90;99.90;;;;;;5095827;28;20012;-78
2021/08/16 06:18:00;;;;;;;0.68;0.10;;;16.90;99.90;;;;;;5096448;28;20016;-78
2021/08/16 06:20:25;;;;;;;0.57;0.00;;;16.90;99.90;;;;;;5096439;28;20068;-78
2021/08/16 06:22:51;;;;;;;0.43;0.00;;;16.90;99.90;;;;;;5096090;28;20473;-78
2021/08/16 06:25:16;;;;;;;0.57;0.00;;;17.00;99.90;;;;;;5114410;28;20023;-78
2021/08/16 06:27:42;;;;;;;1.67;0.00;;;17.00;99.90;;;;;;5096491;28;20027;-78
2021/08/16 06:30:09;;;;;;;0.73;0.10;;;17.00;99.90;;;;;;5114860;28;20019;-78
2021/08/16 06:32:35;;;;;;;1.48;0.30;;;17.00;99.90;;;;;;5096282;28;20162;-78
2021/08/16 06:35:02;;;;;;;1.75;0.10;;;17.10;99.90;;;;;;5114388;28;20052;-78
2021/08/16 06:37:28;;;;;;;1.63;0.22;;;17.10;99.90;;;;;;5113990;28;20076;-78
2021/08/16 06:39:53;;;;;;;2.83;0.35;;;17.20;99.90;;;;;;5095827;28;20119;-78
2021/08/16 06:42:20;;;;;;;1.35;0.00;;;17.30;99.90;;;;;;5096110;28;20011;-78
2021/08/16 06:44:47;;;;;;;0.40;0.00;;;17.30;99.90;;;;;;5114555;28;20020;-78
2021/08/16 06:47:13;;;;;;;2.78;0.00;;;17.30;99.90;;;;;;5114136;28;20028;-78
2021/08/16 06:49:39;;;;;;;1.65;0.30;;;17.30;99.90;;;;;;5095819;28;20096;-78
2021/08/16 06:52:05;;;;;;;7.00;0.10;;;17.30;99.90;;;;;;5114206;28;20028;-78
2021/08/16 06:54:31;;;;;;;0.85;0.00;;;17.40;99.90;;;;;;5114537;28;20027;-78
2021/08/16 06:57:00;;;;;;;7.03;0.55;;;17.40;99.90;;;;;;5114048;28;20034;-78
2021/08/16 06:59:26;;;;;;;4.60;0.10;;;17.30;99.90;;;;;;5095689;28;20110;-78
2021/08/16 07:01:51;;;;;;;2.83;0.00;;;17.30;99.90;;;;;;5112706;28;20058;-78
2021/08/16 07:04:18;;;;;;;5.32;0.40;;;17.30;99.90;;;;;;5113848;28;20053;-78
2021/08/16 07:06:44;;;;;;;4.63;0.15;;;17.30;99.90;;;;;;5113677;28;20020;-79
2021/08/16 07:09:10;;;;;;;5.00;0.68;;;17.30;99.90;;;;;;5096081;28;20016;-80
2021/08/16 07:11:36;;;;;;;4.00;0.10;;;17.20;99.90;;;;;;5103648;22;20044;-79
2021/08/16 07:14:01;;;;;;;5.97;0.32;;;17.20;99.90;;;;;;5093766;28;20017;-77
2021/08/16 07:16:28;;;;;;;4.68;0.35;;;17.20;99.90;;;;;;5093045;28;20028;-77
2021/08/16 07:18:53;;;;;;;1.70;0.17;;;17.10;99.90;;;;;;5095228;28;20526;-78
2021/08/16 07:21:19;;;;;;;1.58;0.25;;;17.10;99.90;;;;;;5108947;22;20031;-76
2021/08/16 07:23:44;;;;;;;1.92;0.10;;;17.10;99.90;;;;;;5078328;28;20024;-75
2021/08/16 07:26:10;;;;;;;1.95;0.10;;;17.00;99.90;;;;;;5096578;28;20603;-75
2021/08/16 07:28:36;;;;;;;5.00;0.10;;;16.90;99.90;;;;;;5096294;28;20473;-75
2021/08/16 07:31:03;;;;;;;0.43;0.30;;;16.90;99.90;;;;;;5096827;28;20027;-75
2021/08/16 07:33:29;;;;;;;4.10;0.45;;;16.80;99.90;;;;;;5077987;28;20111;-75
2021/08/16 07:35:55;;;;;;;2.78;0.20;;;18.40;99.90;;;;;;5096153;28;20099;-75
2021/08/16 07:38:20;;;;;;;2.97;0.10;;;16.70;99.90;;;;;;5096072;28;20024;-75
2021/08/16 07:40:46;;;;;;;4.70;0.10;;;16.80;99.90;;;;;;5096194;28;20023;-78
2021/08/16 07:43:13;;;;;;;3.05;0.40;;;16.80;99.90;;;;;;5078162;28;20474;-76
2021/08/16 07:45:38;;;;;;;3.10;0.20;;;16.80;99.90;;;;;;5078028;28;20012;-77
2021/08/16 07:48:04;;;;;;;4.22;0.10;;;16.80;99.90;;;;;;5078209;28;20073;-78
2021/08/16 07:50:32;;;;;;;5.07;0.30;;;16.80;99.90;;;;;;5096333;28;20027;-79
2021/08/16 07:52:58;;;;;;;2.67;0.20;;;16.80;99.90;;;;;;5096953;28;20024;-79
2021/08/16 07:55:25;;;;;;;2.55;0.25;;;16.70;99.90;;;;;;5096213;28;20032;-78
2021/08/16 07:57:51;;;;;;;2.88;0.20;;;16.70;99.90;;;;;;5096416;28;20092;-76
2021/08/16 08:00:17;;;;;;;2.15;0.20;;;16.70;99.90;;;;;;5077652;28;20127;-77
2021/08/16 08:02:50;;;;;;;4.30;0.28;;;16.60;99.90;;;;;;5078414;28;20035;-77
2021/08/16 08:05:19;;;;;;;1.55;0.10;;;16.70;99.90;;;;;;5096008;28;20016;-77
2021/08/16 08:07:45;;;;;;;2.90;0.22;;;16.70;99.90;;;;;;5096545;28;20534;-78
2021/08/16 08:10:11;;;;;;;1.95;0.32;;;16.80;99.90;;;;;;5096324;28;20099;-77
2021/08/16 08:12:37;;;;;;;3.58;0.20;;;17.00;99.90;;;;;;5095806;28;20048;-77
2021/08/16 08:15:05;;;;;;;5.32;0.20;;;17.10;99.90;;;;;;5094535;28;20111;-77
2021/08/16 08:17:30;;;;;;;2.63;0.10;;;17.20;99.90;;;;;;5077684;28;20028;-77
2021/08/16 08:19:56;;;;;;;9.55;0.10;;;17.30;99.90;;;;;;5095791;28;20050;-77
2021/08/16 08:22:23;;;;;;;2.42;0.68;;;17.40;99.90;;;;;;5077536;28;20077;-77
2021/08/16 08:24:50;;;;;;;4.97;0.10;;;17.30;99.90;;;;;;5095804;28;20419;-76
2021/08/16 08:27:15;;;;;;;3.83;0.10;;;17.30;99.90;;;;;;5095225;28;20473;-76
2021/08/16 08:29:42;;;;;;;3.47;0.38;;;17.30;99.90;;;;;;5095384;28;20073;-78
2021/08/16 08:32:08;;;;;;;5.38;0.40;;;17.40;99.90;;;;;;5095787;28;20075;-77
2021/08/16 08:34:34;;;;;;;2.88;0.10;;;17.50;99.90;;;;;;5096034;28;20398;-78
2021/08/16 08:37:00;;;;;;;2.78;0.22;;;17.50;99.90;;;;;;5095749;28;20052;-78
2021/08/16 08:39:26;;;;;;;4.25;0.10;;;17.60;99.90;;;;;;5095686;28;20024;-79
2021/08/16 08:42:00;;;;;;;4.00;0.00;;;17.70;99.90;;;;;;5094817;28;20020;-76
2021/08/16 08:44:26;;;;;;;7.25;0.20;;;18.40;99.90;;;;;;5094877;28;20020;-76
2021/08/16 08:46:52;;;;;;;2.50;0.17;;;18.10;99.90;;;;;;5076684;28;20020;-76
2021/08/16 08:49:19;;;;;;;2.60;0.75;;;18.20;99.90;;;;;;5095432;28;20434;-77
2021/08/16 08:51:45;;;;;;;2.03;0.38;;;18.10;99.90;;;;;;5094642;28;20024;-76
2021/08/16 08:54:11;;;;;;;4.38;0.20;;;18.10;99.90;;;;;;5076600;28;20469;-76
2021/08/16 08:56:36;;;;;;;6.63;0.55;;;18.10;99.90;;;;;;5094626;28;20081;-76
2021/08/16 08:59:02;;;;;;;4.35;0.22;;;18.10;99.90;;;;;;5076474;28;20119;-79
2021/08/16 09:01:28;;;;;;;5.70;0.82;;;18.20;99.90;;;;;;5095147;28;20016;-79
2021/08/16 09:03:55;;;;;;;5.35;0.30;;;18.30;99.90;;;;;;5076729;28;20052;-79
2021/08/16 09:06:40;;;;;;;4.35;0.40;;;18.50;99.90;;;;;;5094882;28;20027;-75
2021/08/16 09:09:09;;;;;;;3.78;0.28;;;18.60;99.90;;;;;;5094431;28;20036;-75
2021/08/16 09:11:35;;;;;;;5.78;0.40;;;18.60;99.90;;;;;;5076178;28;20512;-76
2021/08/16 09:14:03;;;;;;;6.18;0.65;;;18.50;99.90;;;;;;5076328;28;20024;-77
2021/08/16 09:16:34;;;;;;;3.58;0.55;;;18.40;99.90;;;;;;5094692;28;20039;-75
2021/08/16 09:19:18;;;;;;;9.02;0.70;;;18.20;99.90;;;;;;5093284;28;20485;-75
2021/08/16 09:21:53;;;;;;;7.00;0.98;;;18.20;99.90;;;;;;5094851;28;20081;-78
2021/08/16 09:24:26;;;;;;;4.35;0.75;;;18.30;99.90;;;;;;5094856;28;20477;-78
2021/08/16 09:26:52;;;;;;;5.90;1.15;;;18.30;99.90;;;;;;5076969;28;20016;-78
2021/08/16 09:29:20;;;;;;;4.88;0.68;;;18.40;99.90;;;;;;5076314;28;20028;-78
2021/08/16 09:31:49;;;;;;;2.17;0.28;;;18.60;99.90;;;;;;5094330;28;20020;-75
2021/08/16 09:34:28;;;;;;;3.88;0.90;;;18.80;99.90;;;;;;5094131;28;20020;-75
2021/08/16 09:37:00;;;;;;;5.00;0.93;;;19.20;99.90;;;;;;5075781;28;20059;-75
2021/08/16 09:39:27;;;;;;;3.13;0.50;;;19.40;99.90;;;;;;5093793;28;20034;-75
2021/08/16 09:42:01;;;;;;;6.53;1.13;;;19.40;99.90;;;;;;5093318;28;20024;-75
2021/08/16 09:44:28;;;;;;;3.92;0.63;;;19.40;99.90;;;;;;5075778;28;20020;-76
2021/08/16 09:47:02;;;;;;;3.42;0.60;;;19.40;99.90;;;;;;5092640;28;20035;-76
2021/08/16 09:49:28;;;;;;;5.32;1.17;;;19.30;99.90;;;;;;5094708;28;20020;-78
2021/08/16 09:52:09;;;;;;;6.45;1.25;;;19.40;99.90;;;;;;5076297;28;20035;-78
2021/08/16 09:54:35;;;;;;;4.15;1.10;;;19.50;99.90;;;;;;5094692;28;20423;-78
2021/08/16 09:57:03;;;;;;;5.47;0.60;;;19.70;99.90;;;;;;5094276;28;20028;-78
2021/08/16 09:59:30;;;;;;;;;;;19.80;99.90;;;;;;5095393;28;20050;-76
2021/08/16 10:01:57;;;;;;;3.88;0.52;;;19.80;99.90;;;;;;5093856;28;20371;-79
2021/08/16 10:04:23;;;;;;;6.00;0.98;;;19.90;99.90;;;;;;5093599;28;20048;-75
2021/08/16 10:06:54;;;;;;;2.92;0.70;;;19.90;99.90;;;;;;5093715;28;20020;-75
2021/08/16 10:09:22;;;;;;;3.85;0.28;;;19.70;99.90;;;;;;5093452;28;20020;-75
2021/08/16 10:11:49;;;;;;;1.55;0.28;;;19.70;99.90;;;;;;5093331;28;20050;-75
2021/08/16 10:14:20;;;;;;;8.05;0.73;;;19.70;99.90;;;;;;5093356;28;20099;-75
2021/08/16 10:16:48;;;;;;;1.20;0.30;;;19.80;99.90;;;;;;5093389;28;20032;-75
2021/08/16 10:19:17;;;;;;;2.00;0.20;;;19.90;99.90;;;;;;5075196;28;20123;-75
2021/08/16 10:21:43;;;;;;;2.95;0.20;;;19.90;99.90;;;;;;5075107;28;20485;-75
2021/08/16 10:24:23;;;;;;;4.03;0.22;;;19.80;99.90;;;;;;5093896;28;20423;-75
2021/08/16 10:27:05;;;;;;;2.58;0.10;;;19.70;99.90;;;;;;5093332;28;20016;-75
2021/08/16 10:29:32;;;;;;;1.80;0.38;;;19.90;99.90;;;;;;5093264;28;20489;-75
2021/08/16 10:32:00;;;;;;;1.42;0.10;;;20.10;99.90;;;;;;5093230;28;20055;-75
2021/08/16 10:34:33;;;;;;;0.77;0.20;;;20.30;99.90;;;;;;5075128;28;20386;-75
2021/08/16 10:37:05;;;;;;;3.30;0.52;;;20.50;99.90;;;;;;5076352;28;20024;-78
2021/08/16 10:39:45;;;;;;;4.32;0.35;;;20.70;99.90;;;;;;5075898;28;20031;-78
2021/08/16 10:42:12;;;;;;;4.68;0.25;;;20.90;99.90;;;;;;5075425;28;20077;-76
2021/08/16 10:44:53;;;;;;;1.88;0.00;;;20.80;99.90;;;;;;5076704;28;20065;-78
2021/08/16 10:47:28;;;;;;;0.82;0.00;;;20.60;99.90;;;;;;5076241;28;20473;-78
2021/08/16 10:50:04;;;;;;;0.95;0.20;;;20.40;99.90;;;;;;5075482;28;20032;-77
2021/08/16 10:52:30;;;;;;;1.45;0.60;;;20.10;99.90;;;;;;5094828;28;20091;-76
2021/08/16 10:55:13;;;;;;;3.05;0.80;;;19.90;99.90;;;;;;5079410;28;20036;-77
2021/08/16 10:57:40;;;;;;;2.85;0.00;;;19.80;99.90;;;;;;5097355;28;20024;-78
2021/08/16 11:00:07;;;;;;;4.18;0.30;;;19.80;99.90;;;;;;5095675;28;20024;-75
2021/08/16 11:02:33;;;;;;;2.30;0.20;;;20.00;99.90;;;;;;5078563;28;20497;-75
2021/08/16 11:05:00;;;;;;;3.55;0.22;;;20.10;99.90;;;;;;5096804;28;20431;-75
2021/08/16 11:07:26;;;;;;;5.95;0.65;;;20.10;99.90;;;;;;5096786;28;20377;-75
2021/08/16 11:09:57;;;;;;;4.15;0.75;;;20.10;99.90;;;;;;5096828;28;20501;-76
2021/08/16 11:12:32;;;;;;;4.22;0.70;;;19.90;99.90;;;;;;5078868;28;20530;-77
2021/08/16 11:14:58;;;;;;;2.72;0.10;;;19.50;99.90;;;;;;5078548;28;20024;-76
2021/08/16 11:17:29;;;;;;;5.43;0.40;;;18.70;99.90;;;;;;5078464;28;20032;-76
2021/08/16 11:20:00;;;;;;;1.35;0.13;;;18.10;99.90;;;;;;5096673;28;20465;-76
2021/08/16 11:22:27;;;;;;;1.23;0.30;;;17.70;99.90;;;;;;5078113;28;20028;-75
2021/08/16 11:24:53;;;;;;;1.30;0.17;;;17.40;99.90;;;;;;5078563;28;20420;-76
2021/08/16 11:27:26;;;;;;;3.08;0.43;;;17.30;99.90;;;;;;5096845;28;20018;-79
2021/08/16 11:30:00;;;;;;;2.42;0.30;;;17.20;99.90;;;;;;5078465;28;20028;-76
2021/08/16 11:32:30;;;;;;;6.32;0.15;;;17.10;99.90;;;;;;5122773;22;20527;-76
2021/08/16 11:34:57;;;;;;;3.15;0.38;;;17.20;99.90;;;;;;5117190;28;20026;-79
2021/08/16 11:37:31;;;;;;;2.65;0.40;;;17.30;99.90;;;;;;5099156;28;20026;-78
2021/08/16 11:39:58;;;;;;;3.58;0.32;;;17.30;99.90;;;;;;5117304;28;20115;-75
2021/08/16 11:42:25;;;;;;;3.90;0.35;;;17.50;99.90;;;;;;5116416;28;20030;-75
2021/08/16 11:44:59;;;;;;;1.90;0.25;;;17.50;99.90;;;;;;5116783;28;20050;-78
2021/08/16 11:47:33;;;;;;;3.58;0.30;;;17.50;99.90;;;;;;5098712;28;20028;-78
2021/08/16 11:50:04;;;;;;;2.88;0.17;;;17.50;99.90;;;;;;5116382;28;20028;-76
2021/08/16 11:52:31;;;;;;;3.00;0.20;;;17.40;99.90;;;;;;5116243;28;20028;-76
2021/08/16 11:54:58;;;;;;;3.00;0.30;;;17.40;99.90;;;;;;5116431;28;20059;-77
2021/08/16 11:57:25;;;;;;;5.35;0.43;;;17.50;99.90;;;;;;5098125;28;20489;-76
2021/08/16 11:59:53;;;;;;;3.10;0.20;;;17.60;99.90;;;;;;5098425;28;20043;-79
2021/08/16 12:02:20;;;;;;;7.72;0.35;;;17.70;99.90;;;;;;5114991;28;20027;-75
2021/08/16 12:04:49;;;;;;;4.15;0.00;;;17.80;99.90;;;;;;5115357;28;20358;-75
2021/08/16 12:07:25;;;;;;;2.58;0.20;;;17.80;99.90;;;;;;5116780;28;20539;-77
2021/08/16 12:09:51;;;;;;;2.83;0.50;;;18.00;99.90;;;;;;5098239;28;20468;-76
2021/08/16 12:12:19;;;;;;;3.25;0.40;;;18.00;99.90;;;;;;5116125;28;20030;-76
2021/08/16 12:14:45;;;;;;;7.47;1.05;;;18.10;99.90;;;;;;5097660;28;20026;-76
2021/08/16 12:17:22;;;;;;;7.75;0.40;;;18.20;99.90;;;;;;5098118;28;20051;-78
2021/08/16 12:19:58;;;;;;;6.88;0.35;;;18.10;99.90;;;;;;5097796;28;20028;-76
2021/08/16 12:22:24;;;;;;;4.30;0.32;;;18.20;99.90;;;;;;5115914;28;20027;-76
2021/08/16 12:25:03;;;;;;;4.20;0.55;;;18.30;99.90;;;;;;5116313;28;20457;-78
2021/08/16 12:27:29;;;;;;;3.92;0.20;;;18.30;99.90;;;;;;5098016;28;20058;-75
2021/08/16 12:29:55;;;;;;;4.40;0.47;;;18.40;99.90;;;;;;5097310;28;20433;-75
2021/08/16 12:32:22;;;;;;;4.10;0.10;;;18.50;99.90;;;;;;5115276;28;20077;-75
2021/08/16 12:34:50;;;;;;;2.83;0.10;;;18.50;99.90;;;;;;5098036;28;20172;-79
2021/08/16 12:37:25;;;;;;;1.85;0.00;;;18.50;99.90;;;;;;5098194;28;20019;-79
2021/08/16 12:39:52;;;;;;;2.47;0.05;;;18.50;99.90;;;;;;5098061;28;20028;-78
2021/08/16 12:42:25;;;;;;;5.50;0.10;;;18.40;99.90;;;;;;5115866;28;20020;-78
2021/08/16 12:44:53;;;;;;;4.40;0.10;;;18.30;99.90;;;;;;5115657;28;20020;-76